createdAt,value
2019-02-20T00:01:25.924Z,100903.40
2019-02-20T00:03:55.242Z,100904.79
2019-02-20T00:06:24.691Z,100910.50
2019-02-20T00:08:53.950Z,100911.95
2019-02-20T00:11:23.246Z,100912.63
2019-02-20T00:13:52.612Z,100917.48
2019-02-20T00:16:21.917Z,100919.88
2019-02-20T00:18:51.276Z,100928.22
2019-02-20T00:21:20.632Z,100915.91
2019-02-20T00:23:49.906Z,100929.78
2019-02-20T00:26:19.208Z,100942.41
2019-02-20T00:28:48.565Z,100933.94
2019-02-20T00:31:17.874Z,100940.48
2019-02-20T00:33:47.176Z,100952.08
2019-02-20T00:36:16.712Z,100943.48
2019-02-20T00:38:46.003Z,100947.19
2019-02-20T00:41:15.334Z,100954.84
2019-02-20T00:43:48.054Z,100956.88
2019-02-20T00:46:39.399Z,100967.38
2019-02-20T00:49:15.929Z,100963.14
2019-02-20T00:52:12.999Z,100965.47
2019-02-20T00:54:42.513Z,100968.83
2019-02-20T00:57:11.894Z,100965.02
2019-02-20T00:59:41.285Z,100976.16
2019-02-20T01:02:10.744Z,100968.42
2019-02-20T01:04:40.098Z,100976.95
2019-02-20T01:07:09.467Z,100979.89
2019-02-20T01:09:38.967Z,100981.88
2019-02-20T01:12:08.270Z,100977.80
2019-02-20T01:14:37.638Z,100982.72
2019-02-20T01:17:07.215Z,100981.91
2019-02-20T01:19:36.471Z,100978.97
2019-02-20T01:22:05.790Z,100981.50
2019-02-20T01:24:35.119Z,100988.58
2019-02-20T01:27:04.505Z,100989.13
2019-02-20T01:29:33.809Z,100985.03
2019-02-20T01:32:03.307Z,100977.05
2019-02-20T01:34:32.682Z,100978.97
2019-02-20T01:37:02.008Z,100976.28
2019-02-20T01:39:31.504Z,100978.40
2019-02-20T01:42:00.815Z,100979.51
2019-02-20T01:44:30.146Z,100973.77
2019-02-20T01:46:59.537Z,100974.87
2019-02-20T01:49:28.860Z,100988.92
2019-02-20T01:51:58.147Z,100986.62
2019-02-20T01:54:27.594Z,100984.48
2019-02-20T01:56:57.305Z,100983.69
2019-02-20T01:59:26.579Z,100987.06
2019-02-20T02:01:56.153Z,100991.98
2019-02-20T02:04:25.402Z,101005.88
2019-02-20T02:06:54.688Z,101007.77
2019-02-20T02:09:24.637Z,101000.28
2019-02-20T02:11:53.947Z,101011.75
2019-02-20T02:14:23.278Z,100998.41
2019-02-20T02:16:52.696Z,101003.35
2019-02-20T02:19:22.017Z,101006.34
2019-02-20T02:21:51.284Z,101012.09
2019-02-20T02:24:20.824Z,101013.12
2019-02-20T02:26:50.248Z,101009.33
2019-02-20T02:29:19.598Z,101012.55
2019-02-20T02:31:49.049Z,101011.75
2019-02-20T02:34:18.374Z,101010.92
2019-02-20T02:36:47.658Z,101008.73
2019-02-20T02:39:17.215Z,101006.48
2019-02-20T02:41:46.513Z,101015.14
2019-02-20T02:44:15.843Z,101013.30
2019-02-20T02:46:45.246Z,101009.14
2019-02-20T02:49:14.577Z,101009.97
2019-02-20T02:51:43.881Z,101011.33
2019-02-20T02:54:13.370Z,101017.13
2019-02-20T02:56:42.725Z,101014.14
2019-02-20T02:59:12.092Z,101016.39
2019-02-20T03:01:41.586Z,101019.95
2019-02-20T03:04:10.893Z,101026.49
2019-02-20T03:06:40.160Z,101035.52
2019-02-20T03:09:09.964Z,101037.37
2019-02-20T03:11:39.284Z,101031.08
2019-02-20T03:14:08.567Z,101038.73
2019-02-20T03:16:38.007Z,101048.19
2019-02-20T03:19:07.389Z,101045.73
2019-02-20T03:21:36.669Z,101037.25
2019-02-20T03:24:06.069Z,101047.58
2019-02-20T03:26:35.384Z,101054.41
2019-02-20T03:29:04.729Z,101065.62
2019-02-20T03:31:33.997Z,101059.27
2019-02-20T03:34:03.278Z,101059.25
2019-02-20T03:36:32.590Z,101056.03
2019-02-20T03:39:02.010Z,101044.08
2019-02-20T03:41:31.327Z,101047.05
2019-02-20T03:44:00.619Z,101044.85
2019-02-20T03:46:30.016Z,101062.34
2019-02-20T03:48:59.344Z,101068.36
2019-02-20T03:51:28.689Z,101072.23
2019-02-20T03:53:58.885Z,101086.30
2019-02-20T03:56:28.166Z,101085.42
2019-02-20T03:58:57.720Z,101090.69
2019-02-20T04:01:27.282Z,101091.77
2019-02-20T04:03:56.609Z,101092.59
2019-02-20T04:06:25.922Z,101100.50
2019-02-20T04:08:55.444Z,101098.88
2019-02-20T04:11:24.745Z,101102.98
2019-02-20T04:13:54.047Z,101104.88
2019-02-20T04:16:23.468Z,101108.22
2019-02-20T04:18:52.803Z,101111.77
2019-02-20T04:21:22.160Z,101111.72
2019-02-20T04:24:01.586Z,101107.05
2019-02-20T04:26:22.506Z,101108.95
2019-02-20T04:28:52.075Z,101110.73
2019-02-20T04:31:21.354Z,101106.98
2019-02-20T04:33:50.701Z,101107.52
2019-02-20T04:36:20.232Z,101109.62
2019-02-20T04:38:49.560Z,101108.63
2019-02-20T04:41:18.815Z,101114.64
2019-02-20T04:43:48.287Z,101114.51
2019-02-20T04:46:17.626Z,101118.80
2019-02-20T04:48:46.919Z,101119.56
2019-02-20T04:51:16.219Z,101114.98
2019-02-20T04:53:45.541Z,101125.52
2019-02-20T04:56:14.836Z,101125.24
2019-02-20T04:58:44.648Z,101121.08
2019-02-20T05:01:13.945Z,101126.67
2019-02-20T05:03:43.283Z,101134.33
2019-02-20T05:06:12.737Z,101139.79
2019-02-20T05:08:41.990Z,101143.09
2019-02-20T05:11:11.307Z,101147.00
2019-02-20T05:13:40.867Z,101155.52
2019-02-20T05:16:10.230Z,101158.75
2019-02-20T05:18:39.539Z,101152.63
2019-02-20T05:21:08.990Z,101160.84
2019-02-20T05:23:38.313Z,101152.30
2019-02-20T05:26:07.593Z,101157.70
2019-02-20T05:28:37.004Z,101164.88
2019-02-20T05:31:06.328Z,101165.99
2019-02-20T05:33:35.738Z,101167.30
2019-02-20T05:36:05.261Z,101173.84
2019-02-20T05:38:34.530Z,101189.66
2019-02-20T05:41:03.811Z,101201.89
2019-02-20T05:43:33.314Z,101201.70
2019-02-20T05:46:02.674Z,101203.70
2019-02-20T05:48:31.983Z,101206.56
2019-02-20T05:51:01.548Z,101216.28
2019-02-20T05:53:30.913Z,101214.55
2019-02-20T05:56:00.181Z,101212.09
2019-02-20T05:58:29.767Z,101217.30
2019-02-20T06:00:59.084Z,101221.47
2019-02-20T06:03:28.351Z,101229.85
2019-02-20T06:05:57.825Z,101235.25
2019-02-20T06:08:27.130Z,101238.05
2019-02-20T06:10:56.437Z,101248.34
2019-02-20T06:13:25.760Z,101260.39
2019-02-20T06:15:55.050Z,101266.03
2019-02-20T06:18:24.353Z,101269.95
2019-02-20T06:20:53.661Z,101271.86
2019-02-20T06:23:22.986Z,101281.96
2019-02-20T06:25:52.294Z,101282.75
2019-02-20T06:28:21.817Z,101280.20
2019-02-20T06:30:51.127Z,101284.80
2019-02-20T06:33:20.454Z,101287.89
2019-02-20T06:35:49.926Z,101292.59
2019-02-20T06:38:19.311Z,101300.00
2019-02-20T06:40:48.592Z,101304.42
2019-02-20T06:43:17.955Z,101302.55
2019-02-20T06:45:47.234Z,101310.75
2019-02-20T06:48:16.592Z,101311.58
2019-02-20T06:50:45.966Z,101323.84
2019-02-20T06:53:15.251Z,101328.33
2019-02-20T06:55:44.561Z,101323.77
2019-02-20T06:58:13.967Z,101336.59
2019-02-20T07:00:43.253Z,101336.88
2019-02-20T07:03:12.521Z,101350.55
2019-02-20T07:05:44.128Z,101344.68
2019-02-20T07:09:12.241Z,101355.43
2019-02-20T07:12:20.627Z,101336.77
2019-02-20T07:15:09.747Z,101363.56
2019-02-20T07:18:05.654Z,101364.93
2019-02-20T07:21:03.569Z,101370.21
2019-02-20T07:23:58.439Z,101374.67
2019-02-20T07:26:52.367Z,101379.34
2019-02-20T07:29:44.251Z,101385.34
2019-02-20T07:32:16.310Z,101391.81
2019-02-20T07:34:45.703Z,101395.33
2019-02-20T07:37:14.968Z,101393.67
2019-02-20T07:39:44.301Z,101399.52
2019-02-20T07:42:13.949Z,101397.93
2019-02-20T07:44:43.424Z,101404.58
2019-02-20T07:47:12.683Z,101412.31
2019-02-20T07:49:42.204Z,101416.23
2019-02-20T07:52:11.519Z,101419.94
2019-02-20T07:54:40.813Z,101424.44
2019-02-20T07:57:10.375Z,101422.72
2019-02-20T07:59:39.766Z,101429.02
2019-02-20T08:02:09.052Z,101432.84
2019-02-20T08:04:38.435Z,101443.65
2019-02-20T08:07:07.822Z,101454.03
2019-02-20T08:09:37.054Z,101453.23
2019-02-20T08:12:06.512Z,101463.83
2019-02-20T08:14:35.851Z,101464.08
2019-02-20T08:17:05.183Z,101473.09
2019-02-20T08:19:34.936Z,101490.22
2019-02-20T08:22:04.226Z,101489.45
2019-02-20T08:24:33.551Z,101492.67
2019-02-20T08:27:03.061Z,101499.42
2019-02-20T08:29:32.363Z,101500.22
2019-02-20T08:32:01.637Z,101494.13
2019-02-20T08:34:31.172Z,101498.30
2019-02-20T08:37:00.562Z,101498.56
2019-02-20T08:39:29.881Z,101503.52
2019-02-20T08:41:59.296Z,101505.84
2019-02-20T08:44:28.584Z,101513.86
2019-02-20T08:46:57.850Z,101517.14
2019-02-20T08:49:27.362Z,101527.56
2019-02-20T08:51:56.679Z,101534.37
2019-02-20T08:54:26.024Z,101538.34
2019-02-20T08:56:55.385Z,101549.47
2019-02-20T08:59:24.637Z,101556.32
2019-02-20T09:01:53.998Z,101555.20
2019-02-20T09:04:23.598Z,101557.34
2019-02-20T09:06:53.017Z,101559.12
2019-02-20T09:09:23.258Z,101550.03
2019-02-20T09:11:52.706Z,101562.16
2019-02-20T09:14:22.002Z,101562.09
2019-02-20T09:16:51.237Z,101567.03
2019-02-20T09:19:20.627Z,101567.72
2019-02-20T09:21:49.963Z,101574.97
2019-02-20T09:24:19.265Z,101573.27
2019-02-20T09:26:48.767Z,101581.48
2019-02-20T09:29:18.154Z,101580.52
2019-02-20T09:31:47.475Z,101591.45
2019-02-20T09:34:16.815Z,101587.48
2019-02-20T09:36:46.174Z,101597.12
2019-02-20T09:39:32.660Z,101602.48
2019-02-20T09:42:02.126Z,101605.89
2019-02-20T09:44:34.377Z,101607.69
2019-02-20T09:47:03.677Z,101606.87
2019-02-20T09:49:32.964Z,101611.95
2019-02-20T09:52:02.292Z,101619.47
2019-02-20T09:54:31.612Z,101619.06
2019-02-20T09:57:00.971Z,101620.03
2019-02-20T09:59:30.331Z,101619.13
2019-02-20T10:01:59.597Z,101619.81
2019-02-20T10:04:28.892Z,101624.76
2019-02-20T10:06:58.490Z,101623.39
2019-02-20T10:09:27.731Z,101634.02
2019-02-20T10:11:57.023Z,101637.25
2019-02-20T10:14:26.371Z,101648.57
2019-02-20T10:16:55.687Z,101647.97
2019-02-20T10:19:25.072Z,101648.14
2019-02-20T10:21:54.384Z,101654.96
2019-02-20T10:24:23.655Z,101653.80
2019-02-20T10:27:00.363Z,101657.42
2019-02-20T10:29:23.939Z,101653.64
2019-02-20T10:31:53.303Z,101656.47
2019-02-20T10:34:22.626Z,101654.61
2019-02-20T10:36:51.991Z,101662.24
2019-02-20T10:39:21.386Z,101665.66
2019-02-20T10:41:50.638Z,101666.41
2019-02-20T10:44:19.900Z,101663.54
2019-02-20T10:46:49.233Z,101658.03
2019-02-20T10:49:18.502Z,101666.20
2019-02-20T10:51:47.811Z,101664.02
2019-02-20T10:54:17.130Z,101675.95
2019-02-20T10:56:46.420Z,101665.20
2019-02-20T10:59:15.719Z,101675.59
2019-02-20T11:01:45.113Z,101672.76
2019-02-20T11:04:14.446Z,101686.30
2019-02-20T11:06:43.812Z,101679.95
2019-02-20T11:09:13.426Z,101681.16
2019-02-20T11:11:42.720Z,101686.47
2019-02-20T11:14:11.987Z,101684.42
2019-02-20T11:16:41.258Z,101689.66
2019-02-20T11:19:10.563Z,101700.36
2019-02-20T11:21:39.850Z,101702.95
2019-02-20T11:24:09.202Z,101695.16
2019-02-20T11:26:50.332Z,101703.94
2019-02-20T11:29:09.640Z,101706.69
2019-02-20T11:31:38.922Z,101705.09
2019-02-20T11:34:08.193Z,101698.48
2019-02-20T11:36:37.445Z,101694.57
2019-02-20T11:39:07.267Z,101711.69
2019-02-20T11:41:36.665Z,101709.90
2019-02-20T11:44:06.008Z,101714.97
2019-02-20T11:46:35.322Z,101719.23
2019-02-20T11:49:04.672Z,101709.62
2019-02-20T11:51:33.977Z,101715.38
2019-02-20T11:54:03.224Z,101717.95
2019-02-20T11:56:32.557Z,101715.33
2019-02-20T11:59:01.885Z,101710.30
2019-02-20T12:01:31.155Z,101709.71
2019-02-20T12:04:00.549Z,101711.61
2019-02-20T12:06:29.889Z,101718.16
2019-02-20T12:08:59.330Z,101718.08
2019-02-20T12:11:28.807Z,101720.88
2019-02-20T12:13:58.083Z,101730.03
2019-02-20T12:16:27.430Z,101736.95
2019-02-20T12:18:56.733Z,101733.30
2019-02-20T12:21:26.008Z,101744.48
2019-02-20T12:23:55.310Z,101740.92
2019-02-20T12:26:24.603Z,101742.53
2019-02-20T12:28:53.890Z,101748.73
2019-02-20T12:31:23.190Z,101759.58
2019-02-20T12:33:52.529Z,101764.55
2019-02-20T12:36:21.856Z,101764.55
2019-02-20T12:38:51.263Z,101769.19
2019-02-20T12:41:20.573Z,101768.69
2019-02-20T12:43:49.884Z,101769.01
2019-02-20T12:46:19.127Z,101764.03
2019-02-20T12:48:48.454Z,101772.09
2019-02-20T12:51:17.852Z,101777.77
2019-02-20T12:53:47.212Z,101771.95
2019-02-20T12:56:16.595Z,101781.12
2019-02-20T12:58:45.878Z,101788.39
2019-02-20T13:01:15.179Z,101788.73
2019-02-20T13:03:44.461Z,101787.59
2019-02-20T13:06:13.806Z,101788.42
2019-02-20T13:08:43.056Z,101796.43
2019-02-20T13:11:12.323Z,101797.68
2019-02-20T13:13:43.436Z,101799.13
2019-02-20T13:16:12.845Z,101799.06
2019-02-20T13:18:42.195Z,101807.05
2019-02-20T13:21:11.553Z,101810.78
2019-02-20T13:23:40.831Z,101814.77
2019-02-20T13:26:10.055Z,101815.41
2019-02-20T13:28:39.324Z,101828.87
2019-02-20T13:31:08.664Z,101826.63
2019-02-20T13:33:38.142Z,101828.87
2019-02-20T13:36:07.420Z,101826.25
2019-02-20T13:38:36.685Z,101826.50
2019-02-20T13:41:06.091Z,101837.42
2019-02-20T13:43:35.381Z,101839.91
2019-02-20T13:46:04.729Z,101841.40
2019-02-20T13:48:34.956Z,101840.54
2019-02-20T13:51:04.312Z,101845.23
2019-02-20T13:53:33.739Z,101848.39
2019-02-20T13:56:03.031Z,101847.47
2019-02-20T13:58:32.342Z,101848.36
2019-02-20T14:01:01.648Z,101850.71
2019-02-20T14:03:30.977Z,101854.00
2019-02-20T14:06:00.341Z,101845.00
2019-02-20T14:08:29.658Z,101848.74
2019-02-20T14:10:58.906Z,101862.49
2019-02-20T14:13:28.471Z,101859.23
2019-02-20T14:15:57.790Z,101871.83
2019-02-20T14:18:27.086Z,101867.34
2019-02-20T14:20:56.433Z,101872.20
2019-02-20T14:23:25.783Z,101871.48
2019-02-20T14:25:55.058Z,101871.73
2019-02-20T14:28:24.869Z,101873.89
2019-02-20T14:30:54.167Z,101870.23
2019-02-20T14:33:23.443Z,101877.19
2019-02-20T14:35:52.801Z,101877.44
2019-02-20T14:38:22.043Z,101882.91
2019-02-20T14:40:51.489Z,101882.20
2019-02-20T14:43:20.841Z,101886.97
2019-02-20T14:45:50.148Z,101883.69
2019-02-20T14:48:19.455Z,101887.81
2019-02-20T14:50:48.753Z,101882.95
2019-02-20T14:53:18.062Z,101888.42
2019-02-20T14:55:47.378Z,101885.16
2019-02-20T14:58:16.681Z,101896.95
2019-02-20T15:00:46.048Z,101891.05
2019-02-20T15:03:15.332Z,101885.38
2019-02-20T15:05:44.607Z,101886.88
2019-02-20T15:08:13.953Z,101890.15
2019-02-20T15:10:43.234Z,101890.42
2019-02-20T15:13:12.665Z,101905.54
2019-02-20T15:15:42.249Z,101895.46
2019-02-20T15:18:11.831Z,101893.44
2019-02-20T15:20:41.153Z,101897.47
2019-02-20T15:23:10.398Z,101889.16
2019-02-20T15:25:39.675Z,101884.77
2019-02-20T15:28:08.973Z,101889.81
2019-02-20T15:30:38.602Z,101886.31
2019-02-20T15:33:07.918Z,101896.59
2019-02-20T15:35:37.323Z,101895.90
2019-02-20T15:38:06.717Z,101894.25
2019-02-20T15:40:35.961Z,101894.38
2019-02-20T15:43:05.411Z,101896.20
2019-02-20T15:45:34.995Z,101886.78
2019-02-20T15:48:04.288Z,101892.24
2019-02-20T15:50:33.626Z,101894.11
2019-02-20T15:53:02.946Z,101896.92
2019-02-20T15:55:32.266Z,101896.88
2019-02-20T15:58:01.604Z,101896.12
2019-02-20T16:00:31.008Z,101899.27
2019-02-20T16:03:00.344Z,101904.80
2019-02-20T16:05:29.615Z,101910.67
2019-02-20T16:07:58.905Z,101904.54
2019-02-20T16:10:28.294Z,101903.97
2019-02-20T16:12:57.661Z,101908.13
2019-02-20T16:15:26.963Z,101911.41
2019-02-20T16:17:56.514Z,101920.31
2019-02-20T16:20:25.954Z,101920.95
2019-02-20T16:22:55.328Z,101926.81
2019-02-20T16:25:24.683Z,101918.70
2019-02-20T16:27:54.098Z,101930.42
2019-02-20T16:30:23.346Z,101937.12
2019-02-20T16:32:54.206Z,101935.56
2019-02-20T16:35:23.537Z,101936.98
2019-02-20T16:37:52.819Z,101938.76
2019-02-20T16:40:22.180Z,101943.25
2019-02-20T16:42:51.497Z,101940.39
2019-02-20T16:45:22.483Z,101944.26
2019-02-20T16:47:52.969Z,101950.48
2019-02-20T16:50:22.356Z,101945.81
2019-02-20T16:52:51.645Z,101956.98
2019-02-20T16:55:22.751Z,101949.05
2019-02-20T16:57:56.791Z,101955.34
2019-02-20T17:00:23.378Z,101959.56
2019-02-20T17:02:53.011Z,101955.47
2019-02-20T17:05:22.441Z,101959.86
2019-02-20T17:07:51.810Z,101966.98
2019-02-20T17:10:21.053Z,101974.45
2019-02-20T17:12:50.378Z,101976.11
2019-02-20T17:15:19.877Z,101983.23
2019-02-20T17:17:49.637Z,101982.20
2019-02-20T17:20:19.079Z,101983.56
2019-02-20T17:22:48.443Z,101987.84
2019-02-20T17:25:18.320Z,101989.50
2019-02-20T17:27:47.784Z,101993.48
2019-02-20T17:30:17.310Z,101994.02
2019-02-20T17:32:46.955Z,101992.48
2019-02-20T17:35:17.257Z,101988.28
2019-02-20T17:37:46.723Z,101992.61
2019-02-20T17:40:16.696Z,101995.86
2019-02-20T17:42:45.952Z,102002.16
2019-02-20T17:45:15.224Z,101995.97
2019-02-20T17:47:44.810Z,101995.11
2019-02-20T17:50:15.139Z,101998.89
2019-02-20T17:52:44.452Z,102003.09
2019-02-20T17:55:14.160Z,102003.28
2019-02-20T17:57:43.474Z,102005.34
2019-02-20T18:00:13.905Z,102010.69
2019-02-20T18:02:43.208Z,102014.66
2019-02-20T18:05:13.862Z,102012.45
2019-02-20T18:07:49.653Z,102019.08
2019-02-20T18:10:14.651Z,102012.56
2019-02-20T18:12:44.016Z,102014.86
2019-02-20T18:15:13.590Z,102019.98
2019-02-20T18:17:42.958Z,102018.95
2019-02-20T18:20:12.360Z,102023.36
2019-02-20T18:22:43.627Z,102018.73
2019-02-20T18:25:12.837Z,102021.03
2019-02-20T18:27:42.087Z,102027.93
2019-02-20T18:30:11.666Z,102029.04
2019-02-20T18:32:41.045Z,102030.21
2019-02-20T18:35:10.751Z,102028.38
2019-02-20T18:37:40.123Z,102028.01
2019-02-20T18:40:10.182Z,102033.97
2019-02-20T18:42:39.529Z,102038.59
2019-02-20T18:45:10.516Z,102035.34
2019-02-20T18:47:39.788Z,102033.02
2019-02-20T18:50:10.110Z,102029.45
2019-02-20T18:52:39.437Z,102026.05
2019-02-20T18:55:09.682Z,102029.42
2019-02-20T18:57:41.260Z,102029.85
2019-02-20T19:00:13.024Z,102030.91
2019-02-20T19:02:42.325Z,102037.88
2019-02-20T19:05:11.918Z,102036.93
2019-02-20T19:07:41.191Z,102031.06
2019-02-20T19:10:14.144Z,102040.85
2019-02-20T19:13:08.877Z,102033.39
2019-02-20T19:16:11.447Z,102034.22
2019-02-20T19:19:07.369Z,102035.09
2019-02-20T19:22:23.777Z,102034.43
2019-02-20T19:25:29.796Z,102039.23
2019-02-20T19:28:23.551Z,102033.77
2019-02-20T19:31:29.317Z,102035.61
2019-02-20T19:34:40.242Z,102042.11
2019-02-20T19:37:44.334Z,102042.31
2019-02-20T19:40:33.639Z,102049.91
2019-02-20T19:44:05.037Z,102045.58
2019-02-20T19:47:15.154Z,102044.74
2019-02-20T19:50:14.776Z,102037.78
2019-02-20T19:53:20.614Z,102039.78
2019-02-20T19:56:36.570Z,102046.61
2019-02-20T19:59:41.183Z,102052.91
2019-02-20T20:03:00.407Z,102053.44
2019-02-20T20:06:09.059Z,102057.20
2019-02-20T20:09:34.477Z,102055.71
2019-02-20T20:12:24.686Z,102052.98
2019-02-20T20:15:19.820Z,102052.35
2019-02-20T20:18:12.192Z,102051.84
2019-02-20T20:21:04.802Z,102051.44
2019-02-20T20:24:05.111Z,102056.93
2019-02-20T20:27:14.076Z,102056.22
2019-02-20T20:30:02.252Z,102055.31
2019-02-20T20:32:53.919Z,102050.99
2019-02-20T20:35:46.799Z,102054.68
2019-02-20T20:38:30.095Z,102057.11
2019-02-20T20:41:38.442Z,102056.15
2019-02-20T20:44:52.576Z,102050.16
2019-02-20T20:48:12.329Z,102051.95
2019-02-20T20:51:16.207Z,102053.31
2019-02-20T20:54:15.047Z,102053.02
2019-02-20T20:57:11.332Z,102050.89
2019-02-20T21:00:36.860Z,102051.22
2019-02-20T21:03:09.519Z,102056.15
2019-02-20T21:06:04.646Z,102048.16
2019-02-20T21:09:14.213Z,102049.52
2019-02-20T21:12:13.055Z,102046.19
2019-02-20T21:14:55.225Z,102045.55
2019-02-20T21:17:54.017Z,102044.19
2019-02-20T21:20:53.392Z,102045.55
2019-02-20T21:24:06.754Z,102038.12
2019-02-20T21:27:23.176Z,102042.52
2019-02-20T21:30:32.370Z,102037.81
2019-02-20T21:33:41.465Z,102036.66
2019-02-20T21:36:44.451Z,102038.31
2019-02-20T21:39:30.036Z,102036.76
2019-02-20T21:42:55.079Z,102034.09
2019-02-20T21:46:01.163Z,102041.79
2019-02-20T21:49:06.449Z,102036.83
2019-02-20T21:52:03.421Z,102035.87
2019-02-20T21:55:22.283Z,102038.30
2019-02-20T21:58:38.723Z,102033.02
2019-02-20T22:01:18.786Z,102027.75
2019-02-20T22:04:34.656Z,102025.86
2019-02-20T22:07:50.758Z,102027.12
2019-02-20T22:10:48.881Z,102026.05
2019-02-20T22:14:17.084Z,102021.23
2019-02-20T22:17:22.173Z,102028.59
2019-02-20T22:20:39.719Z,102027.52
2019-02-20T22:24:10.853Z,102031.85
2019-02-20T22:27:24.713Z,102029.29
2019-02-20T22:30:41.141Z,102030.23
2019-02-20T22:33:25.667Z,102026.44
2019-02-20T22:36:44.563Z,102027.13
2019-02-20T22:40:09.735Z,102027.44
2019-02-20T22:43:05.563Z,102020.27
2019-02-20T22:46:13.951Z,102017.84
2019-02-20T22:49:32.787Z,102018.01
2019-02-20T22:52:27.619Z,102024.64
2019-02-20T22:55:26.033Z,102022.94
2019-02-20T22:58:06.270Z,102019.77
2019-02-20T23:01:14.069Z,102015.77
2019-02-20T23:04:36.337Z,102011.34
2019-02-20T23:07:17.138Z,102015.44
2019-02-20T23:10:42.335Z,102014.57
2019-02-20T23:13:55.318Z,102010.17
2019-02-20T23:16:24.678Z,102011.88
2019-02-20T23:18:54.020Z,102006.51
2019-02-20T23:21:23.416Z,102012.61
2019-02-20T23:23:52.782Z,102005.58
2019-02-20T23:26:22.122Z,102003.05
2019-02-20T23:28:51.486Z,102001.44
2019-02-20T23:31:20.730Z,102002.28
2019-02-20T23:33:50.078Z,101998.70
2019-02-20T23:36:19.473Z,101994.75
2019-02-20T23:38:48.808Z,101998.94
2019-02-20T23:41:18.122Z,101992.84
2019-02-20T23:43:47.418Z,101996.22
2019-02-20T23:46:16.765Z,101999.68
2019-02-20T23:48:46.093Z,101996.95
2019-02-20T23:51:15.424Z,101996.08
2019-02-20T23:53:44.769Z,101996.58
2019-02-20T23:56:14.120Z,101996.52
2019-02-20T23:58:43.410Z,101987.88
